D/T METAR WX W/SPE G/SPE TEMP DEWP FEEL
24/05/22 18:20 EGJA 241720Z 26011KT 9999 FEW012 14/11 Q1012 12.7mph 14°C 11°C 15.8°C
24/05/22 17:20 EGJA 241620Z 25010KT 9999 FEW012 14/11 Q1011 11.5mph 14°C 11°C 15.8°C
24/05/22 16:50 EGJA 241550Z 25011KT 9999 FEW012 14/11 Q1011 12.7mph 14°C 11°C 15.8°C
24/05/22 16:20 EGJA 241520Z 26011KT 9999 FEW012 15/11 Q1011 12.7mph 15°C 11°C 16.8°C
24/05/22 15:50 EGJA 241450Z 25012KT 9999 FEW012 15/11 Q1011 13.8mph 15°C 11°C 16.8°C
24/05/22 15:20 EGJA 241420Z 26011KT 9999 FEW010 15/11 Q1011 12.7mph 15°C 11°C 16.8°C
24/05/22 14:50 EGJA 241350Z 25011KT 9999 FEW010 15/11 Q1010 12.7mph 15°C 11°C 16.8°C
24/05/22 14:20 EGJA 241320Z 25011KT 9999 FEW010 14/11 Q1010 12.7mph 14°C 11°C 15.8°C
24/05/22 13:50 EGJA 241250Z 25012KT 9999 FEW010 15/11 Q1010 13.8mph 15°C 11°C 16.8°C
24/05/22 13:20 EGJA 241220Z 26011KT 9999 FEW010 15/11 Q1010 12.7mph 15°C 11°C 16.8°C
24/05/22 12:50 EGJA 241150Z 26012KT 9999 FEW010 15/11 Q1010 13.8mph 15°C 11°C 16.8°C
24/05/22 12:20 EGJA 241120Z 26011KT 9999 FEW010 14/11 Q1009 12.7mph 14°C 11°C 15.8°C
24/05/22 11:50 EGJA 241050Z 25010KT 9999 FEW010 14/11 Q1009 11.5mph 14°C 11°C 15.8°C
24/05/22 11:20 EGJA 241020Z 25011KT 9999 FEW010 14/10 Q1009 12.7mph 14°C 10°C 15.3°C
24/05/22 10:50 EGJA 240950Z 26010KT 9999 FEW010 14/10 Q1009 11.5mph 14°C 10°C 15.3°C
24/05/22 10:20 EGJA 240920Z 27010KT 9999 FEW010 14/11 Q1008 11.5mph 14°C 11°C 15.8°C
24/05/22 09:50 EGJA 240850Z 27011KT 9999 FEW010 13/10 Q1008 12.7mph 13°C 10°C 14.3°C
24/05/22 09:20 EGJA 240820Z 25010KT 9999 FEW010 13/10 Q1008 11.5mph 13°C 10°C 14.3°C
24/05/22 08:50 EGJA 240750Z 26010KT 9999 FEW010 13/10 Q1008 11.5mph 13°C 10°C 14.3°C
24/05/22 08:20 EGJA 240720Z 26013KT 9999 FEW010 12/10 Q1008 15.0mph 12°C 10°C 13.3°C
24/05/22 07:50 EGJA 240650Z 26010KT 9999 FEW007 FEW012CB 12/10 Q1007 11.5mph 12°C 10°C 13.3°C
24/05/22 07:20 EGJA 240620Z 26010KT 9999 FEW007 FEW012CB 11/09 Q1007 11.5mph 11°C 9°C 11.8°C
24/05/22 06:50 EGJA 240550Z 26012KT 9999 FEW007 FEW012CB 11/09 Q1006 13.8mph 11°C 9°C 11.8°C
23/05/22 18:20 EGJA 231720Z 25013KT 9999 FEW012 13/10 Q1004 15.0mph 13°C 10°C 14.3°C
23/05/22 17:50 EGJA 231650Z 26013KT 9999 FEW012 13/11 Q1004 15.0mph 13°C 11°C 14.8°C
23/05/22 16:50 EGJA 231550Z 26015KT 9999 SCT012 13/11 Q1004 17.3mph 13°C 11°C 14.8°C
23/05/22 16:20 EGJA 231520Z 26013KT 9999 FEW015 14/12 Q1004 15.0mph 14°C 12°C 16.3°C
23/05/22 15:50 EGJA 231450Z 25014KT 9999 FEW015 14/12 Q1004 16.1mph 14°C 12°C 16.3°C
23/05/22 15:20 EGJA 231420Z 25013KT 9999 FEW015 14/11 Q1004 15.0mph 14°C 11°C 15.8°C
23/05/22 14:50 EGJA 231350Z 26014KT 9999 FEW015 15/12 Q1004 16.1mph 15°C 12°C 17.3°C
23/05/22 14:20 EGJA 231320Z 27012KT 9999 FEW004 14/12 Q1004 13.8mph 14°C 12°C 16.3°C
23/05/22 13:50 EGJA 231250Z 27012KT 9999 FEW004 14/12 Q1004 13.8mph 14°C 12°C 16.3°C
23/05/22 13:20 EGJA 231220Z 27012KT 9999 SCT004 14/12 Q1004 13.8mph 14°C 12°C 16.3°C
23/05/22 12:50 EGJA 231150Z 27009KT 9999 SCT004 14/12 Q1004 10.4mph 14°C 12°C 16.3°C
23/05/22 12:20 EGJA 231120Z 27010KT 9999 SCT004 14/13 Q1004 11.5mph 14°C 13°C 16.8°C
23/05/22 11:50 EGJA 231050Z 28007KT 9999 FEW004 14/13 Q1004 8.1mph 14°C 13°C 16.8°C
23/05/22 11:20 EGJA 231020Z 28008KT 9999 FEW004 14/12 Q1004 9.2mph 14°C 12°C 16.3°C
23/05/22 10:50 EGJA 230950Z 29008KT 9999 FEW022 14/13 Q1004 9.2mph 14°C 13°C 16.8°C
23/05/22 10:20 EGJA 230920Z 29008KT 9999 FEW022 13/12 Q1004 9.2mph 13°C 12°C 15.3°C
23/05/22 09:50 EGJA 230850Z 30011KT 9999 SCT022 14/13 Q1004 12.7mph 14°C 13°C 16.8°C
23/05/22 09:20 EGJA 230820Z 31009KT 9999 SCT022 13/12 Q1004 10.4mph 13°C 12°C 15.3°C
23/05/22 08:50 EGJA 230750Z 31008KT 9999 SCT021 13/12 Q1004 9.2mph 13°C 12°C 15.3°C
23/05/22 08:20 EGJA 230720Z 32008KT 9999 SCT025 13/12 Q1004 9.2mph 13°C 12°C 15.3°C
23/05/22 07:50 EGJA 230650Z 32007KT 9999 SCT025 12/12 Q1004 8.1mph 12°C 12°C 14.3°C
23/05/22 06:50 EGJA 230550Z 34005KT 9999 FEW026 11/11 Q1004 5.8mph 11°C 11°C 12.8°C
22/05/22 19:20 EGJA 221820Z 06005KT CAVOK 16/12 Q1009 5.8mph 16°C 12°C 18.3°C
22/05/22 18:50 EGJA 221750Z 07007KT CAVOK 16/12 Q1010 8.1mph 16°C 12°C 18.3°C
22/05/22 18:20 EGJA 221720Z 06010KT CAVOK 15/11 Q1010 11.5mph 15°C 11°C 16.8°C
22/05/22 17:50 EGJA 221650Z 07010KT CAVOK 15/11 Q1010 11.5mph 15°C 11°C 16.8°C
22/05/22 16:50 EGJA 221550Z 06007KT CAVOK 16/11 Q1011 8.1mph 16°C 11°C 17.8°C
22/05/22 15:50 EGJA 221450Z 06008KT CAVOK 16/12 Q1011 9.2mph 16°C 12°C 18.3°C
22/05/22 15:20 EGJA 221420Z 08011KT CAVOK 16/10 Q1012 12.7mph 16°C 10°C 17.3°C
22/05/22 14:50 EGJA 221350Z 07013KT CAVOK 17/11 Q1012 15.0mph 17°C 11°C 18.8°C
22/05/22 14:20 EGJA 221320Z 07013KT CAVOK 15/10 Q1012 15.0mph 15°C 10°C 16.3°C
22/05/22 13:50 EGJA 221250Z 05013KT CAVOK 15/10 Q1013 15.0mph 15°C 10°C 16.3°C
22/05/22 13:20 EGJA 221220Z 05012KT CAVOK 15/09 Q1013 13.8mph 15°C 9°C 15.8°C
22/05/22 12:50 EGJA 221150Z 04011KT CAVOK 15/10 Q1013 12.7mph 15°C 10°C 16.3°C
22/05/22 12:20 EGJA 221120Z 05011KT CAVOK 15/10 Q1013 12.7mph 15°C 10°C 16.3°C
22/05/22 11:50 EGJA 221050Z 05010KT CAVOK 15/09 Q1014 11.5mph 15°C 9°C 15.8°C
22/05/22 11:20 EGJA 221020Z 05008KT CAVOK 15/09 Q1014 9.2mph 15°C 9°C 15.8°C
22/05/22 10:50 EGJA 220950Z 05010KT CAVOK 14/09 Q1014 11.5mph 14°C 9°C 14.8°C
22/05/22 10:20 EGJA 220920Z 04009KT CAVOK 15/08 Q1014 10.4mph 15°C 8°C 15.4°C
22/05/22 09:50 EGJA 220850Z 06010KT CAVOK 15/07 Q1014 11.5mph 15°C 7°C 15.0°C
22/05/22 09:20 EGJA 220820Z 05010KT CAVOK 15/07 Q1015 11.5mph 15°C 7°C 15.0°C
22/05/22 08:50 EGJA 220750Z 06006KT CAVOK 15/06 Q1015 6.9mph 15°C 6°C 14.6°C
22/05/22 07:50 EGJA 220650Z 11005KT CAVOK 13/09 Q1016 5.8mph 13°C 9°C 13.8°C
22/05/22 07:20 EGJA 220620Z 09005KT CAVOK 12/10 Q1016 5.8mph 12°C 10°C 13.3°C
22/05/22 06:50 EGJA 220550Z 09007KT CAVOK 11/10 Q1016 8.1mph 11°C 10°C 12.3°C
21/05/22 18:50 EGJA 211750Z 32005KT 9999 FEW007 14/11 Q1021 5.8mph 14°C 11°C 15.8°C
21/05/22 18:20 EGJA 211720Z 28006KT 9999 FEW007 14/10 Q1021 6.9mph 14°C 10°C 15.3°C
21/05/22 17:50 EGJA 211650Z 32007KT 9999 FEW007 15/12 Q1021 8.1mph 15°C 12°C 17.3°C
21/05/22 17:20 EGJA 211620Z 33007KT 9999 FEW007 14/11 Q1021 8.1mph 14°C 11°C 15.8°C
21/05/22 16:50 EGJA 211550Z 31007KT 9999 FEW007 14/12 Q1021 8.1mph 14°C 12°C 16.3°C
21/05/22 16:20 EGJA 211520Z 29007KT 9999 FEW007 14/12 Q1022 8.1mph 14°C 12°C 16.3°C
21/05/22 15:50 EGJA 211450Z 30007KT 9999 FEW007 15/12 Q1022 8.1mph 15°C 12°C 17.3°C
21/05/22 15:20 EGJA 211420Z 21006KT 9999 FEW004 15/11 Q1022 6.9mph 15°C 11°C 16.8°C
21/05/22 14:50 EGJA 211350Z 22007KT 9999 FEW004 15/12 Q1022 8.1mph 15°C 12°C 17.3°C
21/05/22 14:20 EGJA 211320Z 22006KT 9999 FEW004 15/11 Q1023 6.9mph 15°C 11°C 16.8°C
21/05/22 13:50 EGJA 211250Z 22007KT 9999 FEW004 15/11 Q1023 8.1mph 15°C 11°C 16.8°C
21/05/22 13:20 EGJA 211220Z 22007KT 9999 FEW004 15/12 Q1023 8.1mph 15°C 12°C 17.3°C
21/05/22 12:50 EGJA 211150Z 22007KT 9999 FEW001 SCT005 15/12 Q1023 8.1mph 15°C 12°C 17.3°C
21/05/22 12:20 EGJA 211120Z 22007KT 9999 FEW001 SCT004 14/12 Q1023 8.1mph 14°C 12°C 16.3°C
21/05/22 11:50 EGJA 211050Z 23006KT 9999 FEW001 SCT004 15/12 Q1023 6.9mph 15°C 12°C 17.3°C
21/05/22 11:20 EGJA 211020Z 23006KT 9999 FEW001 SCT004 14/12 Q1023 6.9mph 14°C 12°C 16.3°C
21/05/22 10:20 EGJA 210920Z 31006KT 9999 FEW001 SCT004 14/12 Q1023 6.9mph 14°C 12°C 16.3°C
21/05/22 09:50 EGJA 210850Z 28006KT 9999 FEW001 SCT004 13/12 Q1024 6.9mph 13°C 12°C 15.3°C
21/05/22 09:20 EGJA 210820Z 28006KT 9999 SCT004 13/13 Q1023 6.9mph 13°C 13°C 15.8°C
21/05/22 08:50 EGJA 210750Z 28005KT 9999 SCT002 13/13 Q1023 5.8mph 13°C 13°C 15.8°C
21/05/22 07:50 EGJA 210650Z 27008KT 4000 BR OVC002 13/12 Q1023 BR 9.2mph 13°C 12°C 15.3°C
21/05/22 07:20 EGJA 210620Z 27009KT 4000 BR BKN002 12/12 Q1022 BR 10.4mph 12°C 12°C 14.3°C
21/05/22 06:50 EGJA 210550Z 27009KT 4000 BR OVC002 12/12 Q1023 BR 10.4mph 12°C 12°C 14.3°C
20/05/22 19:20 EGJA 201820Z 24015KT CAVOK 13/12 Q1022 17.3mph 13°C 12°C 15.3°C
20/05/22 18:50 EGJA 201750Z 24015KT CAVOK 14/12 Q1021 17.3mph 14°C 12°C 16.3°C
20/05/22 18:20 EGJA 201720Z 23018KT CAVOK 14/12 Q1021 20.7mph 14°C 12°C 16.3°C
20/05/22 17:50 EGJA 201650Z 23018KT CAVOK 14/12 Q1021 20.7mph 14°C 12°C 16.3°C
20/05/22 17:20 EGJA 201620Z 23017KT CAVOK 14/12 Q1021 19.6mph 14°C 12°C 16.3°C